• Join FlightAware (Why Join?)
  • Login
  • US Flag 
06:48AM EDT


 

Airport Tracker/Info


-or-


 

Live Flight TrackerFlight Track Log ✈ N55223 ✈ 11-Aug-2014 ✈ KPBI - KFXE

Flight Track Log - Related Links

Times and Time Zones

All times are in EDT time to prevent confusion due to time zone crossing. See the N55223 flight status page for this flight to view local times or setup timezone preferences in your user account.

Time Position Orientation Groundspeed Altitude Reporting Facility
EDT Latitude Longitude Course Direction KTS MPH feet Rate Location/Type
11:19AM 26.6092 -80.0594 193° South 113 130 2,500  Level Miami Center
11:20AM 26.5783 -80.0792 210° Southwest 126 145 2,500  Level Miami Center
11:21AM 26.5442 -80.0981 206° Southwest 133 153 2,500  Level Miami Center
11:22AM 26.4849 -80.1263 187° South  Level Estimated
11:22AM 26.5064 -80.1192 207° Southwest 139 160 2,500  Level Miami Center
11:22AM 26.4931 -80.1258 204° Southwest 137 158 2,500  Level Miami Center
11:23AM 26.4516 -80.1286 184° South  Level FlightAware Approximate
11:23AM 26.4725 -80.1369 206° Southwest 138 159 2,500  Level Miami Center
11:23AM 26.4603 -80.1489 221° Southwest 139 160 2,500 -240 Level Miami Center
11:24AM 26.4436 -80.1711 230° Southwest 138 159 2,300 -480 Descending Miami Center
11:24AM 26.4328 -80.1861 231° Southwest 143 165 2,000 -600 Descending Miami Center
11:25AM 26.4142 -80.2036 220° Southwest 150 173 1,700 -660 Descending Miami Center
11:25AM 26.4042 -80.2097 209° Southwest 154 177 1,500  Descending Miami Center
11:26AM 26.3725 -80.2072 176° South 140 161 1,700 240 Climbing Miami Center
11:26AM 26.3625 -80.2064 176° South 131 151 1,800  Climbing Miami Center
11:27AM 26.3358 -80.2100 187° South 136 157 1,700 -120 Descending Miami Center
11:27AM 26.3225 -80.2103 181° South 136 157 1,700 -120 Level Miami Center
11:28AM 26.2961 -80.2081 176° South 135 155 1,600 -240 Descending Miami Center
11:28AM 26.2828 -80.2072 177° South 138 159 1,500 -300 Descending Miami Center
11:29AM 26.2583 -80.2058 177° South 135 155 1,300 -240 Descending Miami Center
11:30AM 26.2364 -80.2014 170° South 90 104 1,100 -480 Descending Miami Center
11:31AM 26.2047 -80.1828 152° Southeast 101 116 300 -480 Descending Miami Center
11:32AM 26.1903 -80.1644 131° Southeast 100 115 200 -120 Descending Miami Center
11:34AM 26.1833 -80.1667 190° South  Level FlightAware Approximate